createdAt,value
2017-07-25T00:00:18.448Z,0
2017-07-25T00:01:18.422Z,0
2017-07-25T00:02:18.397Z,0
2017-07-25T00:03:18.375Z,0
2017-07-25T00:04:18.644Z,0
2017-07-25T00:05:18.327Z,0
2017-07-25T00:06:18.308Z,0
2017-07-25T00:07:18.584Z,0
2017-07-25T00:08:18.562Z,0
2017-07-25T00:09:18.538Z,0
2017-07-25T00:10:18.218Z,0
2017-07-25T00:11:18.490Z,0
2017-07-25T00:12:18.568Z,0
2017-07-25T00:13:18.449Z,0
2017-07-25T00:14:18.418Z,0
2017-07-25T00:15:18.398Z,0
2017-07-25T00:16:18.375Z,0
2017-07-25T00:17:18.353Z,0
2017-07-25T00:18:18.331Z,0
2017-07-25T00:19:18.312Z,0
2017-07-25T00:20:18.286Z,0
2017-07-25T00:21:18.274Z,0
2017-07-25T00:22:18.237Z,0
2017-07-25T00:23:18.225Z,0
2017-07-25T00:24:17.900Z,0
2017-07-25T00:25:18.176Z,0
2017-07-25T00:26:18.165Z,0
2017-07-25T00:27:17.834Z,0
2017-07-25T00:28:18.118Z,0
2017-07-25T00:29:18.081Z,0
2017-07-25T00:30:18.060Z,0
2017-07-25T00:31:18.050Z,0
2017-07-25T00:32:18.023Z,0
2017-07-25T00:33:17.989Z,0
2017-07-25T00:34:17.974Z,0
2017-07-25T00:35:17.956Z,0
2017-07-25T00:36:17.931Z,0
2017-07-25T00:37:17.903Z,0
2017-07-25T00:38:17.587Z,0
2017-07-25T00:39:17.574Z,0
2017-07-25T00:40:17.538Z,0
2017-07-25T00:41:17.521Z,0
2017-07-25T00:42:17.794Z,0
2017-07-25T00:43:17.765Z,0
2017-07-25T00:44:17.740Z,0
2017-07-25T00:45:17.745Z,0
2017-07-25T00:46:17.400Z,0
2017-07-25T00:47:17.382Z,0
2017-07-25T00:48:17.651Z,0
2017-07-25T00:49:17.632Z,0
2017-07-25T00:50:17.310Z,0
2017-07-25T00:51:17.582Z,0
2017-07-25T00:52:17.561Z,0
2017-07-25T00:53:17.539Z,0
2017-07-25T00:54:17.221Z,0
2017-07-25T00:55:17.492Z,0
2017-07-25T00:56:16.580Z,0
2017-07-25T00:57:17.449Z,0
2017-07-25T00:58:17.428Z,0
2017-07-25T00:59:17.405Z,0
2017-07-25T01:00:17.382Z,0
2017-07-25T01:01:17.356Z,0
2017-07-25T01:02:17.338Z,0
2017-07-25T01:03:17.320Z,0
2017-07-25T01:04:16.985Z,0
2017-07-25T01:05:16.970Z,0
2017-07-25T01:06:17.247Z,0
2017-07-25T01:07:16.946Z,0
2017-07-25T01:08:16.907Z,0
2017-07-25T01:09:17.177Z,0
2017-07-25T01:10:17.171Z,0
2017-07-25T01:11:17.128Z,0
2017-07-25T01:12:16.514Z,0
2017-07-25T01:13:17.112Z,0
2017-07-25T01:14:17.077Z,0
2017-07-25T01:15:16.449Z,0
2017-07-25T01:16:16.720Z,0
2017-07-25T01:17:16.993Z,0
2017-07-25T01:18:16.676Z,0
2017-07-25T01:19:16.950Z,0
2017-07-25T01:20:16.641Z,0
2017-07-25T01:21:16.906Z,0
2017-07-25T01:22:16.882Z,0
2017-07-25T01:23:16.861Z,0
2017-07-25T01:24:16.839Z,0
2017-07-25T01:25:16.531Z,0
2017-07-25T01:26:16.498Z,0
2017-07-25T01:27:16.771Z,0
2017-07-25T01:28:16.743Z,0
2017-07-25T01:29:16.733Z,0
2017-07-25T01:30:16.406Z,0
2017-07-25T01:31:16.675Z,0
2017-07-25T01:32:16.654Z,0
2017-07-25T01:33:16.633Z,0
2017-07-25T01:34:16.613Z,0
2017-07-25T01:35:16.589Z,0
2017-07-25T01:36:16.567Z,0
2017-07-25T01:37:16.539Z,0
2017-07-25T01:38:16.221Z,0
2017-07-25T01:39:16.488Z,0
2017-07-25T01:40:16.484Z,0
2017-07-25T01:41:16.455Z,0
2017-07-25T01:42:16.137Z,0
2017-07-25T01:43:16.410Z,0
2017-07-25T01:44:16.097Z,0
2017-07-25T01:45:16.363Z,0
2017-07-25T01:46:16.342Z,0
2017-07-25T01:47:16.316Z,0
2017-07-25T01:48:16.299Z,0
2017-07-25T01:49:16.264Z,0
2017-07-25T01:50:15.655Z,0
2017-07-25T01:51:16.217Z,0
2017-07-25T01:52:15.915Z,0
2017-07-25T01:53:16.181Z,0
2017-07-25T01:54:16.163Z,0
2017-07-25T01:55:16.143Z,0
2017-07-25T01:56:16.113Z,0
2017-07-25T01:57:15.791Z,0
2017-07-25T01:58:16.066Z,0
2017-07-25T01:59:16.045Z,0
2017-07-25T02:00:15.134Z,0
2017-07-25T02:01:15.999Z,0
2017-07-25T02:02:15.690Z,0
2017-07-25T02:03:15.968Z,0
2017-07-25T02:04:15.634Z,0
2017-07-25T02:05:15.627Z,0
2017-07-25T02:06:15.293Z,0
2017-07-25T02:07:15.576Z,0
2017-07-25T02:08:15.844Z,0
2017-07-25T02:09:15.833Z,0
2017-07-25T02:10:15.801Z,0
2017-07-25T02:11:15.477Z,0
2017-07-25T02:12:15.748Z,0
2017-07-25T02:13:15.722Z,0
2017-07-25T02:14:15.407Z,0
2017-07-25T02:15:15.381Z,0
2017-07-25T02:16:15.359Z,0
2017-07-25T02:17:15.344Z,0
2017-07-25T02:18:15.618Z,0
2017-07-25T02:19:15.588Z,0
2017-07-25T02:20:15.569Z,0
2017-07-25T02:21:15.543Z,0
2017-07-25T02:22:15.518Z,0
2017-07-25T02:23:15.497Z,0
2017-07-25T02:24:15.478Z,0
2017-07-25T02:25:15.457Z,0
2017-07-25T02:26:15.432Z,0
2017-07-25T02:27:15.403Z,0
2017-07-25T02:28:15.386Z,0
2017-07-25T02:29:15.360Z,0
2017-07-25T02:30:15.344Z,0
2017-07-25T02:31:15.322Z,0
2017-07-25T02:32:15.324Z,0
2017-07-25T02:33:14.985Z,0
2017-07-25T02:34:14.952Z,0
2017-07-25T02:35:15.227Z,0
2017-07-25T02:36:15.204Z,0
2017-07-25T02:37:14.904Z,0
2017-07-25T02:38:15.153Z,0
2017-07-25T02:39:15.132Z,0
2017-07-25T02:40:14.817Z,0
2017-07-25T02:41:15.085Z,0
2017-07-25T02:42:15.067Z,0
2017-07-25T02:43:15.045Z,0
2017-07-25T02:44:14.725Z,0
2017-07-25T02:45:14.404Z,0
2017-07-25T02:46:14.686Z,0
2017-07-25T02:47:14.944Z,0
2017-07-25T02:48:14.960Z,0
2017-07-25T02:49:14.899Z,0
2017-07-25T02:50:14.890Z,0
2017-07-25T02:51:14.854Z,0
2017-07-25T02:52:14.833Z,0
2017-07-25T02:53:14.818Z,0
2017-07-25T02:54:14.784Z,0
2017-07-25T02:55:14.788Z,0
2017-07-25T02:56:14.743Z,0
2017-07-25T02:57:14.720Z,0
2017-07-25T02:58:14.406Z,0
2017-07-25T02:59:14.370Z,0
2017-07-25T03:00:14.354Z,0
2017-07-25T03:01:14.627Z,0
2017-07-25T03:02:14.600Z,0
2017-07-25T03:03:14.285Z,0
2017-07-25T03:04:14.557Z,0
2017-07-25T03:05:14.530Z,0
2017-07-25T03:06:14.215Z,0
2017-07-25T03:07:14.488Z,0
2017-07-25T03:08:14.462Z,0
2017-07-25T03:09:14.465Z,0
2017-07-25T03:10:14.427Z,0
2017-07-25T03:11:14.400Z,0
2017-07-25T03:12:14.084Z,0
2017-07-25T03:13:14.352Z,0
2017-07-25T03:14:14.032Z,0
2017-07-25T03:15:14.017Z,0
2017-07-25T03:16:14.278Z,0
2017-07-25T03:17:13.664Z,0
2017-07-25T03:18:13.640Z,0
2017-07-25T03:19:14.214Z,0
2017-07-25T03:20:13.596Z,0
2017-07-25T03:21:13.577Z,0
2017-07-25T03:22:13.844Z,0
2017-07-25T03:23:12.941Z,0
2017-07-25T03:24:14.100Z,0
2017-07-25T03:25:14.095Z,0
2017-07-25T03:26:13.758Z,0
2017-07-25T03:27:14.033Z,0
2017-07-25T03:28:13.712Z,0
2017-07-25T03:29:13.689Z,0
2017-07-25T03:30:13.980Z,0
2017-07-25T03:31:13.954Z,0
2017-07-25T03:32:13.906Z,0
2017-07-25T03:33:13.899Z,0
2017-07-25T03:34:13.566Z,0
2017-07-25T03:35:13.554Z,0
2017-07-25T03:36:13.521Z,0
2017-07-25T03:37:13.794Z,0
2017-07-25T03:38:13.777Z,0
2017-07-25T03:39:13.754Z,0
2017-07-25T03:40:13.735Z,0
2017-07-25T03:41:13.713Z,0
2017-07-25T03:42:13.389Z,0
2017-07-25T03:43:13.360Z,0
2017-07-25T03:44:13.638Z,0
2017-07-25T03:45:13.612Z,0
2017-07-25T03:46:13.592Z,0
2017-07-25T03:47:13.564Z,0
2017-07-25T03:48:13.545Z,0
2017-07-25T03:49:13.515Z,0
2017-07-25T03:50:13.492Z,0
2017-07-25T03:51:13.469Z,0
2017-07-25T03:52:13.460Z,5
2017-07-25T03:53:13.135Z,5
2017-07-25T03:54:13.420Z,5
2017-07-25T03:55:13.377Z,5
2017-07-25T03:56:13.361Z,5
2017-07-25T03:57:13.043Z,5
2017-07-25T03:58:13.013Z,5
2017-07-25T03:59:13.282Z,5
2017-07-25T04:00:12.967Z,10
2017-07-25T04:01:13.242Z,10
2017-07-25T04:02:12.921Z,10
2017-07-25T04:03:13.187Z,10
2017-07-25T04:04:13.174Z,10
2017-07-25T04:05:13.147Z,10
2017-07-25T04:06:12.836Z,15
2017-07-25T04:07:13.105Z,15
2017-07-25T04:08:12.776Z,15
2017-07-25T04:09:13.066Z,15
2017-07-25T04:10:12.739Z,15
2017-07-25T04:11:13.005Z,15
2017-07-25T04:12:12.701Z,15
2017-07-25T04:13:12.956Z,15
2017-07-25T04:14:12.644Z,15
2017-07-25T04:15:12.916Z,15
2017-07-25T04:16:12.889Z,15
2017-07-25T04:17:12.564Z,15
2017-07-25T04:18:12.848Z,15
2017-07-25T04:19:12.819Z,15
2017-07-25T04:20:12.503Z,15
2017-07-25T04:21:12.183Z,15
2017-07-25T04:22:12.453Z,20
2017-07-25T04:23:12.428Z,20
2017-07-25T04:24:12.703Z,20
2017-07-25T04:25:12.680Z,20
2017-07-25T04:26:12.662Z,20
2017-07-25T04:27:12.057Z,20
2017-07-25T04:28:12.328Z,25
2017-07-25T04:29:12.580Z,25
2017-07-25T04:30:11.969Z,25
2017-07-25T04:31:12.538Z,25
2017-07-25T04:32:12.228Z,30
2017-07-25T04:33:12.499Z,30
2017-07-25T04:34:12.472Z,30
2017-07-25T04:35:12.158Z,30
2017-07-25T04:36:12.125Z,30
2017-07-25T04:37:11.807Z,30
2017-07-25T04:38:11.789Z,30
2017-07-25T04:39:11.463Z,35
2017-07-25T04:40:12.335Z,40
2017-07-25T04:41:11.710Z,35
2017-07-25T04:42:11.989Z,35
2017-07-25T04:43:11.966Z,40
2017-07-25T04:44:11.648Z,40
2017-07-25T04:45:12.213Z,50
2017-07-25T04:46:12.190Z,55
2017-07-25T04:47:11.868Z,50
2017-07-25T04:48:11.848Z,45
2017-07-25T04:49:11.821Z,45
2017-07-25T04:50:11.845Z,40
2017-07-25T04:51:12.074Z,45
2017-07-25T04:52:11.457Z,45
2017-07-25T04:53:12.022Z,30
2017-07-25T04:54:12.008Z,30
2017-07-25T04:55:11.983Z,35
2017-07-25T04:56:11.656Z,40
2017-07-25T04:57:11.934Z,40
2017-07-25T04:58:11.916Z,45
2017-07-25T04:59:11.887Z,35
2017-07-25T05:00:11.867Z,30
2017-07-25T05:01:11.838Z,30
2017-07-25T05:02:11.520Z,30
2017-07-25T05:03:11.821Z,30
2017-07-25T05:04:11.474Z,30
2017-07-25T05:05:12.105Z,30
2017-07-25T05:06:11.565Z,35
2017-07-25T05:07:11.706Z,45
2017-07-25T05:08:11.690Z,50
2017-07-25T05:09:11.656Z,60
2017-07-25T05:10:11.339Z,50
2017-07-25T05:11:11.610Z,35
2017-07-25T05:12:11.594Z,35
2017-07-25T05:13:11.579Z,40
2017-07-25T05:14:11.553Z,40
2017-07-25T05:15:11.516Z,30
2017-07-25T05:16:11.502Z,35
2017-07-25T05:17:11.474Z,30
2017-07-25T05:18:11.159Z,25
2017-07-25T05:19:11.431Z,25
2017-07-25T05:20:11.408Z,35
2017-07-25T05:21:11.382Z,55
2017-07-25T05:22:11.357Z,50
2017-07-25T05:23:11.333Z,45
2017-07-25T05:24:11.017Z,35
2017-07-25T05:25:11.286Z,25
2017-07-25T05:26:11.416Z,25
2017-07-25T05:27:10.945Z,30
2017-07-25T05:28:10.921Z,40
2017-07-25T05:29:10.904Z,45
2017-07-25T05:30:10.874Z,45
2017-07-25T05:31:11.146Z,40
2017-07-25T05:32:11.125Z,40
2017-07-25T05:33:10.812Z,40
2017-07-25T05:34:10.787Z,40
2017-07-25T05:35:11.062Z,50
2017-07-25T05:36:11.033Z,45
2017-07-25T05:37:11.007Z,60
2017-07-25T05:38:10.986Z,80
2017-07-25T05:39:10.965Z,95
2017-07-25T05:40:10.940Z,80
2017-07-25T05:41:10.922Z,80
2017-07-25T05:42:10.898Z,90
2017-07-25T05:43:10.871Z,100
2017-07-25T05:44:10.851Z,115
2017-07-25T05:45:10.846Z,110
2017-07-25T05:46:10.516Z,105
2017-07-25T05:47:10.779Z,115
2017-07-25T05:48:10.461Z,130
2017-07-25T05:49:10.741Z,130
2017-07-25T05:50:10.412Z,115
2017-07-25T05:51:10.699Z,135
2017-07-25T05:52:10.561Z,120
2017-07-25T05:53:10.646Z,115
2017-07-25T05:54:10.332Z,95
2017-07-25T05:55:10.602Z,95
2017-07-25T05:56:10.571Z,105
2017-07-25T05:57:10.550Z,115
2017-07-25T05:58:10.530Z,120
2017-07-25T05:59:10.212Z,130
2017-07-25T06:00:10.201Z,115
2017-07-25T06:01:10.461Z,120
2017-07-25T06:02:10.141Z,115
2017-07-25T06:03:10.425Z,115
2017-07-25T06:04:09.794Z,110
2017-07-25T06:05:10.071Z,115
2017-07-25T06:06:10.052Z,140
2017-07-25T06:07:10.022Z,110
2017-07-25T06:08:10.918Z,120
2017-07-25T06:09:10.000Z,170
2017-07-25T06:10:09.959Z,155
2017-07-25T06:11:09.935Z,145
2017-07-25T06:12:10.205Z,160
2017-07-25T06:13:09.894Z,185
2017-07-25T06:14:09.865Z,190
2017-07-25T06:15:10.152Z,200
2017-07-25T06:16:09.822Z,210
2017-07-25T06:17:09.805Z,245
2017-07-25T06:18:09.795Z,225
2017-07-25T06:19:09.753Z,225
2017-07-25T06:20:09.441Z,220
2017-07-25T06:21:10.004Z,210
2017-07-25T06:22:09.691Z,205
2017-07-25T06:23:09.670Z,220
2017-07-25T06:24:09.706Z,215
2017-07-25T06:25:09.622Z,220
2017-07-25T06:26:09.897Z,265
2017-07-25T06:27:09.573Z,245
2017-07-25T06:28:09.554Z,265
2017-07-25T06:29:09.835Z,245
2017-07-25T06:30:09.811Z,215
2017-07-25T06:31:09.784Z,170
2017-07-25T06:32:09.470Z,155
2017-07-25T06:33:09.461Z,165
2017-07-25T06:34:09.421Z,190
2017-07-25T06:35:09.694Z,200
2017-07-25T06:36:09.676Z,220
2017-07-25T06:37:10.003Z,250
2017-07-25T06:38:09.339Z,240
2017-07-25T06:39:09.611Z,255
2017-07-25T06:40:09.689Z,230
2017-07-25T06:41:09.290Z,240
2017-07-25T06:42:09.555Z,250
2017-07-25T06:43:09.527Z,210
2017-07-25T06:44:09.494Z,260
2017-07-25T06:45:09.190Z,280
2017-07-25T06:46:09.453Z,265
2017-07-25T06:47:09.132Z,210
2017-07-25T06:48:09.115Z,215
2017-07-25T06:49:09.390Z,215
2017-07-25T06:50:09.360Z,220
2017-07-25T06:51:09.347Z,210
2017-07-25T06:52:09.546Z,205
2017-07-25T06:53:09.659Z,215
2017-07-25T06:54:09.281Z,250
2017-07-25T06:55:09.262Z,290
2017-07-25T06:56:09.238Z,315
2017-07-25T06:57:09.212Z,330
2017-07-25T06:58:09.193Z,325
2017-07-25T06:59:09.273Z,335
2017-07-25T07:00:09.456Z,355
2017-07-25T07:01:10.979Z,360
2017-07-25T07:02:09.373Z,355
2017-07-25T07:03:10.373Z,360
2017-07-25T07:04:09.061Z,355
2017-07-25T07:05:08.748Z,360
2017-07-25T07:06:09.014Z,360
2017-07-25T07:07:08.698Z,370
2017-07-25T07:08:08.978Z,370
2017-07-25T07:09:08.660Z,380
2017-07-25T07:10:08.660Z,385
2017-07-25T07:11:10.468Z,385
2017-07-25T07:12:11.375Z,390
2017-07-25T07:13:08.573Z,400
2017-07-25T07:14:09.208Z,415
2017-07-25T07:15:08.825Z,420
2017-07-25T07:16:08.811Z,420
2017-07-25T07:17:08.788Z,425
2017-07-25T07:18:08.758Z,430
2017-07-25T07:19:08.747Z,420
2017-07-25T07:20:08.727Z,400
2017-07-25T07:21:08.702Z,385
2017-07-25T07:22:08.381Z,375
2017-07-25T07:23:08.814Z,370
2017-07-25T07:24:08.870Z,385
2017-07-25T07:25:08.325Z,380
2017-07-25T07:26:08.588Z,375
2017-07-25T07:27:08.568Z,365
2017-07-25T07:28:08.611Z,360
2017-07-25T07:29:08.531Z,365
2017-07-25T07:30:08.237Z,340
2017-07-25T07:31:08.499Z,285
2017-07-25T07:32:08.174Z,210
2017-07-25T07:33:08.791Z,190
2017-07-25T07:34:08.422Z,230
2017-07-25T07:35:08.502Z,280
2017-07-25T07:36:08.092Z,265
2017-07-25T07:37:07.530Z,225
2017-07-25T07:38:08.543Z,175
2017-07-25T07:39:08.317Z,140
2017-07-25T07:40:08.296Z,145
2017-07-25T07:41:08.277Z,195
2017-07-25T07:42:07.959Z,245
2017-07-25T07:43:08.283Z,240
2017-07-25T07:44:07.919Z,195
2017-07-25T07:45:07.607Z,200
2017-07-25T07:46:08.176Z,260
2017-07-25T07:47:08.151Z,275
2017-07-25T07:48:08.134Z,270
2017-07-25T07:49:08.103Z,265
2017-07-25T07:50:07.782Z,240
2017-07-25T07:51:08.236Z,220
2017-07-25T07:52:07.544Z,200
2017-07-25T07:53:08.021Z,165
2017-07-25T07:54:07.708Z,160
2017-07-25T07:55:07.378Z,215
2017-07-25T07:56:07.965Z,230
2017-07-25T07:57:07.996Z,240
2017-07-25T07:58:07.938Z,295
2017-07-25T07:59:07.894Z,310
2017-07-25T08:00:07.573Z,320
2017-07-25T08:01:07.548Z,325
2017-07-25T08:02:08.033Z,255
2017-07-25T08:03:07.852Z,150
2017-07-25T08:04:07.480Z,115
2017-07-25T08:05:07.376Z,115
2017-07-25T08:06:07.735Z,130
2017-07-25T08:07:07.710Z,200
2017-07-25T08:08:07.526Z,255
2017-07-25T08:09:07.672Z,325
2017-07-25T08:10:07.359Z,305
2017-07-25T08:11:07.834Z,345
2017-07-25T08:12:07.694Z,325
2017-07-25T08:13:08.046Z,280
2017-07-25T08:14:07.292Z,245
2017-07-25T08:15:07.022Z,275
2017-07-25T08:16:08.053Z,280
2017-07-25T08:17:07.238Z,360
2017-07-25T08:18:06.935Z,385
2017-07-25T08:19:07.487Z,375
2017-07-25T08:20:07.159Z,315
2017-07-25T08:21:07.305Z,310
2017-07-25T08:22:07.700Z,325
2017-07-25T08:23:08.255Z,380
2017-07-25T08:24:07.343Z,480
2017-07-25T08:25:07.332Z,530
2017-07-25T08:26:07.004Z,510
2017-07-25T08:27:07.287Z,435
2017-07-25T08:28:07.248Z,415
2017-07-25T08:29:06.933Z,380
2017-07-25T08:30:07.107Z,410
2017-07-25T08:31:07.187Z,365
2017-07-25T08:32:07.165Z,375
2017-07-25T08:33:07.145Z,530
2017-07-25T08:34:07.123Z,685
2017-07-25T08:35:07.099Z,710
2017-07-25T08:36:07.089Z,705
2017-07-25T08:37:07.072Z,720
2017-07-25T08:38:07.037Z,705
2017-07-25T08:39:06.717Z,700
2017-07-25T08:40:06.996Z,670
2017-07-25T08:41:06.985Z,670
2017-07-25T08:42:06.947Z,660
2017-07-25T08:43:06.929Z,640
2017-07-25T08:44:06.913Z,760
2017-07-25T08:45:06.898Z,855
2017-07-25T08:46:06.881Z,875
2017-07-25T08:47:06.553Z,915
2017-07-25T08:48:06.831Z,810
2017-07-25T08:49:06.215Z,765
2017-07-25T08:50:06.493Z,895
2017-07-25T08:51:06.776Z,925
2017-07-25T08:52:06.465Z,865
2017-07-25T08:53:06.736Z,835
2017-07-25T08:54:06.713Z,890
2017-07-25T08:55:06.399Z,950
2017-07-25T08:56:06.674Z,930
2017-07-25T08:57:06.644Z,960
2017-07-25T08:58:06.630Z,910
2017-07-25T08:59:06.927Z,825
2017-07-25T09:00:06.593Z,670
2017-07-25T09:01:06.862Z,600
2017-07-25T09:02:06.510Z,785
2017-07-25T09:03:06.255Z,895
2017-07-25T09:04:06.221Z,940
2017-07-25T09:05:06.493Z,900
2017-07-25T09:06:06.495Z,825
2017-07-25T09:07:06.472Z,775
2017-07-25T09:08:06.439Z,770
2017-07-25T09:09:06.426Z,770
2017-07-25T09:10:07.490Z,855
2017-07-25T09:11:06.472Z,870
2017-07-25T09:12:07.493Z,830
2017-07-25T09:13:06.615Z,725
2017-07-25T09:14:06.319Z,740
2017-07-25T09:15:06.021Z,770
2017-07-25T09:16:06.317Z,790
2017-07-25T09:17:06.267Z,775
2017-07-25T09:18:06.376Z,755
2017-07-25T09:19:06.243Z,730
2017-07-25T09:20:06.362Z,820
2017-07-25T09:21:06.190Z,865
2017-07-25T09:22:05.578Z,925
2017-07-25T09:23:06.268Z,875
2017-07-25T09:24:06.134Z,785
2017-07-25T09:25:06.208Z,805
2017-07-25T09:26:06.117Z,830
2017-07-25T09:27:06.401Z,965
2017-07-25T09:28:06.058Z,1070
2017-07-25T09:29:06.033Z,1130
2017-07-25T09:30:05.732Z,1165
2017-07-25T09:31:06.046Z,1145
2017-07-25T09:32:05.681Z,1105
2017-07-25T09:33:05.967Z,1045
2017-07-25T09:34:05.951Z,1085
2017-07-25T09:35:05.636Z,1060
2017-07-25T09:36:05.845Z,1020
2017-07-25T09:37:05.307Z,1190
2017-07-25T09:38:05.873Z,1230
2017-07-25T09:39:05.851Z,1220
2017-07-25T09:40:05.534Z,1170
2017-07-25T09:41:05.821Z,1040
2017-07-25T09:42:05.162Z,935
2017-07-25T09:43:05.832Z,980
2017-07-25T09:44:05.766Z,1150
2017-07-25T09:45:05.744Z,1130
2017-07-25T09:46:05.131Z,1090
2017-07-25T09:47:05.704Z,1110
2017-07-25T09:48:05.693Z,1095
2017-07-25T09:49:05.535Z,1100
2017-07-25T09:50:05.069Z,1045
2017-07-25T09:51:05.641Z,995
2017-07-25T09:52:05.671Z,1120
2017-07-25T09:53:06.090Z,1170
2017-07-25T09:54:05.586Z,1160
2017-07-25T09:55:05.888Z,1195
2017-07-25T09:56:05.560Z,1180
2017-07-25T09:57:05.245Z,1145
2017-07-25T09:58:05.526Z,1045
2017-07-25T09:59:05.499Z,940
2017-07-25T10:00:04.893Z,1045
2017-07-25T10:01:05.182Z,1080
2017-07-25T10:02:05.443Z,1020
2017-07-25T10:03:05.434Z,830
2017-07-25T10:04:05.415Z,935
2017-07-25T10:05:05.132Z,950
2017-07-25T10:06:05.646Z,925
2017-07-25T10:07:05.378Z,975
2017-07-25T10:08:05.385Z,865
2017-07-25T10:09:05.218Z,680
2017-07-25T10:10:05.308Z,880
2017-07-25T10:11:05.288Z,860
2017-07-25T10:12:05.268Z,850
2017-07-25T10:13:05.688Z,1045
2017-07-25T10:14:04.941Z,1085
2017-07-25T10:15:05.258Z,1015
2017-07-25T10:16:04.941Z,805
2017-07-25T10:17:04.609Z,675
2017-07-25T10:18:05.121Z,605
2017-07-25T10:19:04.875Z,560
2017-07-25T10:20:05.134Z,610
2017-07-25T10:21:05.118Z,585
2017-07-25T10:22:05.102Z,465
2017-07-25T10:23:05.079Z,360
2017-07-25T10:24:04.761Z,325
2017-07-25T10:25:04.765Z,295
2017-07-25T10:26:05.050Z,275
2017-07-25T10:27:05.342Z,360
2017-07-25T10:28:04.997Z,600
2017-07-25T10:29:04.691Z,535
2017-07-25T10:30:05.022Z,490
2017-07-25T10:31:05.092Z,505
2017-07-25T10:32:05.075Z,640
2017-07-25T10:33:04.899Z,800
2017-07-25T10:34:04.873Z,865
2017-07-25T10:35:04.643Z,875
2017-07-25T10:36:04.617Z,875
2017-07-25T10:37:04.633Z,855
2017-07-25T10:38:05.101Z,865
2017-07-25T10:39:04.224Z,870
2017-07-25T10:40:04.477Z,870
2017-07-25T10:41:04.463Z,720
2017-07-25T10:42:04.424Z,815
2017-07-25T10:43:04.410Z,970
2017-07-25T10:44:04.687Z,1065
2017-07-25T10:45:04.985Z,1040
2017-07-25T10:46:04.346Z,1090
2017-07-25T10:47:03.739Z,1105
2017-07-25T10:48:04.618Z,1015
2017-07-25T10:49:04.642Z,865
2017-07-25T10:50:04.938Z,715
2017-07-25T10:51:04.421Z,665
2017-07-25T10:52:04.637Z,650
2017-07-25T10:53:04.728Z,580
2017-07-25T10:54:04.299Z,485
2017-07-25T10:55:04.494Z,350
2017-07-25T10:56:03.860Z,360
2017-07-25T10:57:04.434Z,490
2017-07-25T10:58:04.419Z,590
2017-07-25T10:59:03.812Z,580
2017-07-25T11:00:04.491Z,515
2017-07-25T11:01:04.351Z,415
2017-07-25T11:02:04.348Z,330
2017-07-25T11:03:03.999Z,400
2017-07-25T11:04:04.704Z,410
2017-07-25T11:05:04.649Z,350
2017-07-25T11:06:04.184Z,340
2017-07-25T11:07:04.003Z,410
2017-07-25T11:08:04.226Z,470
2017-07-25T11:09:04.214Z,400
2017-07-25T11:10:03.709Z,400
2017-07-25T11:11:03.891Z,350
2017-07-25T11:12:03.908Z,250
2017-07-25T11:13:03.833Z,370
2017-07-25T11:14:03.811Z,425
2017-07-25T11:15:03.794Z,590
2017-07-25T11:16:03.480Z,705
2017-07-25T11:17:04.371Z,735
2017-07-25T11:18:03.731Z,700
2017-07-25T11:19:03.715Z,780
2017-07-25T11:20:03.695Z,820
2017-07-25T11:21:04.596Z,865
2017-07-25T11:22:03.992Z,930
2017-07-25T11:23:04.183Z,1020
2017-07-25T11:24:03.910Z,1080
2017-07-25T11:25:03.762Z,1075
2017-07-25T11:26:03.873Z,1030
2017-07-25T11:27:03.842Z,975
2017-07-25T11:28:03.633Z,900
2017-07-25T11:29:03.810Z,845
2017-07-25T11:30:03.202Z,755
2017-07-25T11:31:03.320Z,715
2017-07-25T11:32:03.155Z,720
2017-07-25T11:33:03.709Z,725
2017-07-25T11:34:03.724Z,740
2017-07-25T11:35:03.399Z,720
2017-07-25T11:36:03.676Z,680
2017-07-25T11:37:03.359Z,695
2017-07-25T11:38:03.742Z,715
2017-07-25T11:39:03.627Z,685
2017-07-25T11:40:03.598Z,670
2017-07-25T11:41:03.581Z,590
2017-07-25T11:42:03.850Z,670
2017-07-25T11:43:03.985Z,660
2017-07-25T11:44:03.565Z,590
2017-07-25T11:45:03.506Z,560
2017-07-25T11:46:03.785Z,520
2017-07-25T11:47:03.172Z,550
2017-07-25T11:48:03.259Z,550
2017-07-25T11:49:03.425Z,565
2017-07-25T11:50:03.775Z,585
2017-07-25T11:51:03.709Z,560
2017-07-25T11:52:03.597Z,510
2017-07-25T11:53:03.053Z,515
2017-07-25T11:54:03.544Z,480
2017-07-25T11:55:02.781Z,495
2017-07-25T11:56:02.699Z,545
2017-07-25T11:57:03.270Z,625
2017-07-25T11:58:03.260Z,630
2017-07-25T11:59:03.231Z,670
2017-07-25T12:00:02.918Z,670
2017-07-25T12:01:03.194Z,620
2017-07-25T12:02:03.193Z,630
2017-07-25T12:03:03.152Z,735
2017-07-25T12:04:03.133Z,745
2017-07-25T12:05:02.815Z,765
2017-07-25T12:06:02.668Z,720
2017-07-25T12:07:03.082Z,700
2017-07-25T12:08:02.869Z,670
2017-07-25T12:09:02.744Z,605
2017-07-25T12:10:02.725Z,520
2017-07-25T12:11:02.714Z,455
2017-07-25T12:12:02.685Z,500
2017-07-25T12:13:02.962Z,550
2017-07-25T12:14:02.941Z,515
2017-07-25T12:15:03.011Z,495
2017-07-25T12:16:03.056Z,515
2017-07-25T12:17:04.053Z,475
2017-07-25T12:18:02.811Z,440
2017-07-25T12:19:02.856Z,410
2017-07-25T12:20:02.836Z,395
2017-07-25T12:21:02.807Z,375
2017-07-25T12:22:02.501Z,375
2017-07-25T12:23:02.769Z,375
2017-07-25T12:24:02.457Z,360
2017-07-25T12:25:02.747Z,370
2017-07-25T12:26:02.705Z,400
2017-07-25T12:27:02.698Z,360
2017-07-25T12:28:02.666Z,385
2017-07-25T12:29:02.653Z,400
2017-07-25T12:30:02.932Z,370
2017-07-25T12:31:02.672Z,430
2017-07-25T12:32:02.588Z,625
2017-07-25T12:33:02.569Z,625
2017-07-25T12:34:02.571Z,655
2017-07-25T12:35:02.537Z,520
2017-07-25T12:36:02.504Z,390
2017-07-25T12:37:02.496Z,305
2017-07-25T12:38:02.468Z,365
2017-07-25T12:39:02.445Z,375
2017-07-25T12:40:02.434Z,505
2017-07-25T12:41:02.793Z,405
2017-07-25T12:42:02.329Z,490
2017-07-25T12:43:02.450Z,580
2017-07-25T12:44:02.292Z,595
2017-07-25T12:45:02.039Z,640
2017-07-25T12:46:02.321Z,610
2017-07-25T12:47:02.176Z,585
2017-07-25T12:48:01.981Z,560
2017-07-25T12:49:01.945Z,515
2017-07-25T12:50:02.234Z,495
2017-07-25T12:51:02.209Z,470
2017-07-25T12:52:02.188Z,445
2017-07-25T12:53:01.587Z,415
2017-07-25T12:54:01.693Z,400
2017-07-25T12:55:02.142Z,390
2017-07-25T12:56:01.519Z,410
2017-07-25T12:57:02.146Z,485
2017-07-25T12:58:01.775Z,635
2017-07-25T12:59:01.164Z,715
2017-07-25T13:00:01.733Z,695
2017-07-25T13:01:02.009Z,655
2017-07-25T13:02:01.692Z,645
2017-07-25T13:03:01.716Z,595
2017-07-25T13:04:01.660Z,510
2017-07-25T13:05:01.336Z,410
2017-07-25T13:06:01.929Z,340
2017-07-25T13:07:01.598Z,340
2017-07-25T13:08:01.576Z,350
2017-07-25T13:09:01.569Z,345
2017-07-25T13:10:01.544Z,295
2017-07-25T13:11:01.813Z,275
2017-07-25T13:12:01.501Z,205
2017-07-25T13:13:01.484Z,195
2017-07-25T13:14:01.164Z,155
2017-07-25T13:15:01.743Z,180
2017-07-25T13:16:01.778Z,195
2017-07-25T13:17:01.697Z,310
2017-07-25T13:18:01.673Z,350
2017-07-25T13:19:01.352Z,290
2017-07-25T13:20:01.341Z,345
2017-07-25T13:21:01.308Z,355
2017-07-25T13:22:01.319Z,365
2017-07-25T13:23:01.627Z,325
2017-07-25T13:24:01.558Z,320
2017-07-25T13:25:01.529Z,295
2017-07-25T13:26:01.509Z,445
2017-07-25T13:27:01.484Z,505
2017-07-25T13:28:01.491Z,565
2017-07-25T13:29:01.502Z,570
2017-07-25T13:30:01.433Z,565
2017-07-25T13:31:01.401Z,545
2017-07-25T13:32:01.571Z,515
2017-07-25T13:33:01.535Z,480
2017-07-25T13:34:01.234Z,445
2017-07-25T13:35:01.332Z,390
2017-07-25T13:36:01.005Z,465
2017-07-25T13:37:00.984Z,455
2017-07-25T13:38:00.669Z,465
2017-07-25T13:39:00.658Z,405
2017-07-25T13:40:01.225Z,355
2017-07-25T13:41:01.207Z,375
2017-07-25T13:42:00.885Z,380
2017-07-25T13:43:00.872Z,395
2017-07-25T13:44:00.550Z,360
2017-07-25T13:45:01.126Z,400
2017-07-25T13:46:01.096Z,435
2017-07-25T13:47:00.781Z,395
2017-07-25T13:48:01.062Z,390
2017-07-25T13:49:00.749Z,435
2017-07-25T13:50:01.024Z,480
2017-07-25T13:51:00.702Z,520
2017-07-25T13:52:00.688Z,535
2017-07-25T13:53:00.665Z,585
2017-07-25T13:54:00.648Z,485
2017-07-25T13:55:00.620Z,490
2017-07-25T13:56:00.608Z,555
2017-07-25T13:57:00.579Z,470
2017-07-25T13:58:00.265Z,400
2017-07-25T13:59:00.240Z,365
2017-07-25T14:00:03.474Z,345
2017-07-25T14:01:00.796Z,435
2017-07-25T14:02:00.776Z,425
2017-07-25T14:03:00.752Z,410
2017-07-25T14:04:00.145Z,400